Time;durP1;ratioP1;P1;durP2;ratioP2;P2;SDS_P1;SDS_P2;PMS_P1;PMS_P2;Temp;Humidity;BMP_temperature;BMP_pressure;BME280_temperature;BME280_humidity;BME280_pressure;Samples;Min_cycle;Max_cycle;Signal;HPM_P1;HPM_P2
2021/11/30 00:00:47;;;;;;;;;;;3.00;99.90;;;;;;5078001;28;19974;-80
2021/11/30 00:03:14;;;;;;;;;;;2.80;99.90;;;;;;5077414;28;20279;-80
2021/11/30 00:05:40;;;;;;;;;;;3.00;99.90;;;;;;5077808;28;20022;-81
2021/11/30 00:08:07;;;;;;;;;;;3.10;99.90;;;;;;5080940;28;20027;-78
2021/11/30 00:10:46;;;;;;;;;;;3.10;99.90;;;;;;5093080;28;19924;-78
2021/11/30 00:13:13;;;;;;;;;;;3.10;99.90;;;;;;5091728;28;19924;-79
2021/11/30 00:15:40;;;;;;;;;;;3.10;99.90;;;;;;5086571;28;19931;-80
2021/11/30 00:18:08;;;;;;;;;;;3.10;99.90;;;;;;5079371;28;19982;-80
2021/11/30 00:20:35;;;;;;;;;;;3.00;99.90;;;;;;5080370;28;19959;-80
2021/11/30 00:23:02;;;;;;;;;;;3.10;99.90;;;;;;5078963;28;19925;-80
2021/11/30 00:25:29;;;;;;;;;;;3.00;99.90;;;;;;5078056;28;19972;-80
2021/11/30 00:27:56;;;;;;;;;;;3.00;99.90;;;;;;5078715;28;19924;-80
2021/11/30 00:30:22;;;;;;;;;;;3.00;99.90;;;;;;5077627;28;20001;-80
2021/11/30 00:32:49;;;;;;;;;;;3.00;99.90;;;;;;5077326;28;20435;-80
2021/11/30 00:37:50;;;;;;;;;;;3.00;99.90;;;;;;5084710;28;20394;-79
2021/11/30 00:40:17;;;;;;;;;;;3.10;99.90;;;;;;5090124;28;19932;-79
2021/11/30 00:42:44;;;;;;;;;;;2.90;99.90;;;;;;5090184;28;19968;-79
2021/11/30 00:45:14;;;;;;;;;;;3.10;99.90;;;;;;5089344;28;20382;-79
2021/11/30 00:47:47;;;;;;;;;;;3.10;99.90;;;;;;5067620;28;20336;-82
2021/11/30 00:50:14;;;;;;;;;;;3.00;99.90;;;;;;5062722;28;19932;-81
2021/11/30 00:52:41;;;;;;;;;;;3.10;99.90;;;;;;5063256;28;19925;-81
2021/11/30 00:55:09;;;;;;;;;;;3.10;99.90;;;;;;5063621;28;19932;-81
2021/11/30 00:57:39;;;;;;;;;;;3.10;99.90;;;;;;5063411;28;19935;-81
2021/11/30 01:00:07;;;;;;;;;;;3.10;99.90;;;;;;5062978;28;19924;-82
2021/11/30 01:02:34;;;;;;;;;;;3.10;99.90;;;;;;5063551;28;19929;-82
2021/11/30 01:05:00;;;;;;;;;;;3.10;99.90;;;;;;5062970;28;20019;-82
2021/11/30 01:07:27;;;;;;;;;;;3.10;99.90;;;;;;5063782;28;19992;-82
2021/11/30 01:09:53;;;;;;;;;;;3.70;99.90;;;;;;5062940;28;20028;-81
2021/11/30 01:12:21;;;;;;;;;;;3.10;99.90;;;;;;5062779;28;19931;-82
2021/11/30 01:14:48;;;;;;;;;;;3.10;99.90;;;;;;5062790;28;19924;-81
2021/11/30 01:17:15;;;;;;;;;;;3.10;99.90;;;;;;5063296;28;20015;-79
2021/11/30 01:19:41;;;;;;;;;;;3.10;99.90;;;;;;5063443;28;19925;-81
2021/11/30 01:22:08;;;;;;;;;;;3.00;99.90;;;;;;5063026;28;19929;-81
2021/11/30 01:24:35;;;;;;;;;;;2.70;99.90;;;;;;5062958;28;20004;-82
2021/11/30 01:27:01;;;;;;;;;;;3.00;99.90;;;;;;5063664;28;19940;-81
2021/11/30 01:29:29;;;;;;;;;;;3.00;99.90;;;;;;5065861;28;20418;-81
2021/11/30 01:31:56;;;;;;;;;;;3.00;99.90;;;;;;5067828;28;19924;-82
2021/11/30 01:34:23;;;;;;;;;;;3.10;99.90;;;;;;5067578;28;19971;-82
2021/11/30 01:36:50;;;;;;;;;;;3.10;99.90;;;;;;5068561;28;19924;-81
2021/11/30 01:39:16;;;;;;;;;;;3.10;99.90;;;;;;5067063;28;20008;-82
2021/11/30 01:41:45;;;;;;;;;;;3.30;99.90;;;;;;5065867;28;20407;-82
2021/11/30 01:44:26;;;;;;;;;;;3.10;99.90;;;;;;5065233;28;19925;-81
2021/11/30 01:47:06;;;;;;;;;;;3.10;99.90;;;;;;5065366;28;19932;-80
2021/11/30 01:49:35;;;;;;;;;;;3.10;99.90;;;;;;5066514;28;20290;-81
2021/11/30 01:52:02;;;;;;;;;;;3.10;99.90;;;;;;5064221;28;19924;-81
2021/11/30 01:54:28;;;;;;;;;;;3.30;99.90;;;;;;5066032;28;20024;-80
2021/11/30 01:56:55;;;;;;;;;;;3.10;99.90;;;;;;5065340;28;20011;-81
2021/11/30 01:59:22;;;;;;;;;;;3.00;99.90;;;;;;5065365;28;19932;-82
2021/11/30 02:01:48;;;;;;;;;;;3.00;99.90;;;;;;5065145;28;20012;-82
2021/11/30 02:04:17;;;;;;;;;;;3.10;99.90;;;;;;5061678;28;19932;-81
2021/11/30 02:06:44;;;;;;;;;;;3.10;99.90;;;;;;5064256;28;20307;-82
2021/11/30 02:09:10;;;;;;;;;;;3.00;99.90;;;;;;5068118;28;19962;-78
2021/11/30 02:11:37;;;;;;;;;;;3.00;99.90;;;;;;5076067;28;19932;-79
2021/11/30 02:14:04;;;;;;;;;;;3.50;99.90;;;;;;5070435;28;19929;-82
2021/11/30 02:16:31;;;;;;;;;;;3.00;99.90;;;;;;5075178;28;20099;-80
2021/11/30 02:19:00;;;;;;;;;;;3.10;99.90;;;;;;5075398;28;19920;-80
2021/11/30 02:21:35;;;;;;;;;;;2.90;99.90;;;;;;5073460;28;19935;-82
2021/11/30 02:24:01;;;;;;;;;;;3.10;99.90;;;;;;5066961;28;19955;-81
2021/11/30 02:26:29;;;;;;;;;;;3.10;99.90;;;;;;5065149;28;19983;-81
2021/11/30 02:28:57;;;;;;;;;;;3.10;99.90;;;;;;5065655;28;20399;-81
2021/11/30 02:31:25;;;;;;;;;;;3.10;99.90;;;;;;5065188;28;20263;-82
2021/11/30 02:33:52;;;;;;;;;;;3.60;99.90;;;;;;5065871;28;19924;-81
2021/11/30 02:36:23;;;;;;;;;;;3.10;99.90;;;;;;5065100;28;19968;-82
2021/11/30 02:38:51;;;;;;;;;;;3.10;99.90;;;;;;5065273;28;19970;-81
2021/11/30 02:41:18;;;;;;;;;;;3.20;99.90;;;;;;5074301;28;19952;-79
2021/11/30 02:43:44;;;;;;;;;;;3.10;99.90;;;;;;5071976;28;19936;-81
2021/11/30 02:46:11;;;;;;;;;;;3.10;99.90;;;;;;5068762;28;19967;-81
2021/11/30 02:48:40;;;;;;;;;;;3.00;99.90;;;;;;5068816;28;19971;-81
2021/11/30 02:51:08;;;;;;;;;;;2.90;99.90;;;;;;5067109;28;20064;-82
2021/11/30 02:53:36;;;;;;;;;;;2.70;99.90;;;;;;5068457;28;19980;-80
2021/11/30 02:56:05;;;;;;;;;;;2.80;99.90;;;;;;5077547;28;19951;-81
2021/11/30 02:58:31;;;;;;;;;;;2.90;99.90;;;;;;5079459;28;19928;-82
2021/11/30 03:01:01;;;;;;;;;;;2.90;99.90;;;;;;5070463;28;19984;-80
2021/11/30 03:03:28;;;;;;;;;;;2.40;99.90;;;;;;5074053;28;19999;-82
2021/11/30 03:05:55;;;;;;;;;;;2.90;99.90;;;;;;5079434;28;19935;-81
2021/11/30 03:08:21;;;;;;;;;;;2.90;99.90;;;;;;5069863;28;20015;-82
2021/11/30 03:10:48;;;;;;;;;;;2.80;99.90;;;;;;5067522;28;19971;-82
2021/11/30 03:13:16;;;;;;;;;;;2.90;99.90;;;;;;5065412;28;19936;-82
2021/11/30 03:15:43;;;;;;;;;;;2.80;99.90;;;;;;5061428;28;20352;-82
2021/11/30 03:18:10;;;;;;;;;;;2.70;99.90;;;;;;5060129;28;20015;-81
2021/11/30 03:20:36;;;;;;;;;;;2.80;99.90;;;;;;5060178;28;19933;-82
2021/11/30 03:23:03;;;;;;;;;;;2.80;99.90;;;;;;5064735;28;19928;-81
2021/11/30 03:25:30;;;;;;;;;;;2.50;99.90;;;;;;5065218;28;20042;-81
2021/11/30 03:27:57;;;;;;;;;;;2.70;99.90;;;;;;5064062;28;19972;-81
2021/11/30 03:30:25;;;;;;;;;;;3.00;99.90;;;;;;5065492;28;19935;-82
2021/11/30 03:35:36;;;;;;;;;;;2.80;99.90;;;;;;5061767;28;19948;-82
2021/11/30 03:38:02;;;;;;;;;;;3.30;99.90;;;;;;5061769;28;19952;-82
2021/11/30 03:40:29;;;;;;;;;;;2.80;99.90;;;;;;5062561;28;20011;-82
2021/11/30 03:42:56;;;;;;;;;;;2.70;99.90;;;;;;5064002;28;20255;-82
2021/11/30 03:45:23;;;;;;;;;;;2.80;99.90;;;;;;5060414;28;19924;-80
2021/11/30 03:47:51;;;;;;;;;;;2.80;99.90;;;;;;5060798;28;19931;-80
2021/11/30 03:50:17;;;;;;;;;;;2.90;99.90;;;;;;5066664;28;19960;-82
2021/11/30 03:52:44;;;;;;;;;;;2.50;99.90;;;;;;5067568;28;19928;-79
2021/11/30 03:55:11;;;;;;;;;;;2.70;99.90;;;;;;5064893;28;20024;-81
2021/11/30 03:57:38;;;;;;;;;;;2.80;99.90;;;;;;5064845;28;19972;-80
2021/11/30 04:00:10;;;;;;;;;;;3.00;99.90;;;;;;5067606;28;19929;-80
2021/11/30 04:02:37;;;;;;;;;;;2.90;99.90;;;;;;5066580;28;19979;-79
2021/11/30 04:05:05;;;;;;;;;;;2.80;99.90;;;;;;5069098;28;19929;-78
2021/11/30 04:07:32;;;;;;;;;;;2.80;99.90;;;;;;5070435;28;20023;-78
2021/11/30 04:09:59;;;;;;;;;;;2.90;99.90;;;;;;5069593;28;19932;-78
2021/11/30 04:12:25;;;;;;;;;;;2.90;99.90;;;;;;5070941;28;20007;-80
2021/11/30 04:14:52;;;;;;;;;;;2.90;99.90;;;;;;5065027;28;19936;-81
2021/11/30 04:17:19;;;;;;;;;;;2.90;99.90;;;;;;5064317;28;20015;-81
2021/11/30 04:19:46;;;;;;;;;;;2.80;99.90;;;;;;5069511;28;20000;-80
2021/11/30 04:22:14;;;;;;;;;;;2.80;99.90;;;;;;5070836;28;19931;-81
2021/11/30 04:24:41;;;;;;;;;;;3.30;99.90;;;;;;5074753;28;19992;-81
2021/11/30 04:27:08;;;;;;;;;;;2.70;99.90;;;;;;5067119;28;19932;-81
2021/11/30 04:29:36;;;;;;;;;;;3.00;99.90;;;;;;5064606;28;19996;-81
2021/11/30 04:32:03;;;;;;;;;;;2.90;99.90;;;;;;5064820;28;19924;-81
2021/11/30 04:34:30;;;;;;;;;;;2.90;99.90;;;;;;5065515;28;19988;-81
2021/11/30 04:36:57;;;;;;;;;;;2.80;99.90;;;;;;5071919;28;19924;-79
2021/11/30 04:39:25;;;;;;;;;;;2.80;99.90;;;;;;5073562;28;19964;-79
2021/11/30 04:41:51;;;;;;;;;;;2.70;99.90;;;;;;5074186;28;19925;-79
2021/11/30 04:44:19;;;;;;;;;;;2.70;99.90;;;;;;5067715;28;19947;-82
2021/11/30 04:46:53;;;;;;;;;;;2.70;99.90;;;;;;5064826;28;20376;-81
2021/11/30 04:49:35;;;;;;;;;;;2.80;99.90;;;;;;5065612;28;19925;-81
2021/11/30 04:52:06;;;;;;;;;;;2.10;99.90;;;;;;5062869;28;19925;-82
2021/11/30 04:54:34;;;;;;;;;;;2.30;99.90;;;;;;5062939;28;19971;-81
2021/11/30 04:57:01;;;;;;;;;;;2.20;99.90;;;;;;5063996;28;19925;-82
2021/11/30 04:59:27;;;;;;;;;;;2.10;99.90;;;;;;5064644;28;19925;-81
2021/11/30 05:01:55;;;;;;;;;;;2.20;99.90;;;;;;5066203;28;19935;-82
2021/11/30 05:04:21;;;;;;;;;;;2.10;99.90;;;;;;5066928;28;20011;-83
2021/11/30 05:06:48;;;;;;;;;;;2.10;99.90;;;;;;5072272;28;19925;-80
2021/11/30 05:09:15;;;;;;;;;;;2.00;99.90;;;;;;5074838;28;19925;-80
2021/11/30 05:11:43;;;;;;;;;;;2.00;99.90;;;;;;5073107;28;19952;-81
2021/11/30 05:14:09;;;;;;;;;;;2.00;99.90;;;;;;5066982;28;19925;-82
2021/11/30 05:16:37;;;;;;;;;;;1.90;99.90;;;;;;5067828;28;19960;-81
2021/11/30 05:19:03;;;;;;;;;;;1.90;99.90;;;;;;5066308;28;19932;-82
2021/11/30 05:21:30;;;;;;;;;;;2.10;99.90;;;;;;5065080;28;19925;-81
2021/11/30 05:24:01;;;;;;;;;;;2.00;99.90;;;;;;5064373;28;20024;-82
2021/11/30 05:26:28;;;;;;;;;;;1.90;99.90;;;;;;5064036;28;19988;-80
2021/11/30 05:28:56;;;;;;;;;;;2.00;99.90;;;;;;5063198;28;20345;-81
2021/11/30 05:31:22;;;;;;;;;;;2.30;99.90;;;;;;5069987;28;19960;-79
2021/11/30 05:33:49;;;;;;;;;;;2.20;99.90;;;;;;5069215;28;20009;-80
2021/11/30 05:36:18;;;;;;;;;;;2.20;99.90;;;;;;5066422;28;19924;-82
2021/11/30 05:38:44;;;;;;;;;;;2.20;99.90;;;;;;5066873;28;19967;-81
2021/11/30 05:41:11;;;;;;;;;;;1.40;99.90;;;;;;5066329;28;19924;-82
2021/11/30 05:43:38;;;;;;;;;;;2.10;99.90;;;;;;5065649;28;19925;-82
2021/11/30 05:46:06;;;;;;;;;;;2.00;99.90;;;;;;5064778;28;19931;-81
2021/11/30 05:48:33;;;;;;;;;;;2.00;99.90;;;;;;5064362;28;19925;-80
2021/11/30 05:51:00;;;;;;;;;;;2.00;99.90;;;;;;5061251;28;19983;-79
2021/11/30 05:53:27;;;;;;;;;;;2.00;99.90;;;;;;5064460;28;19935;-80
2021/11/30 05:55:55;;;;;;;;;;;2.00;99.90;;;;;;5064539;28;19924;-82
2021/11/30 05:58:22;;;;;;;;;;;2.00;99.90;;;;;;5064015;28;19956;-81
2021/11/30 06:00:49;;;;;;;;;;;2.00;99.90;;;;;;5063653;28;19960;-79
2021/11/30 06:03:28;;;;;;;;;;;2.10;99.90;;;;;;5071564;28;19932;-81
2021/11/30 06:05:56;;;;;;;;;;;2.70;99.90;;;;;;5065004;28;19924;-81
2021/11/30 06:08:22;;;;;;;;;;;2.10;99.90;;;;;;5061444;28;20011;-80
2021/11/30 06:10:49;;;;;;;;;;;1.70;99.90;;;;;;5063117;28;20020;-80
2021/11/30 06:13:16;;;;;;;;;;;2.10;99.90;;;;;;5075205;28;19944;-80
2021/11/30 06:15:42;;;;;;;;;;;2.20;99.90;;;;;;5080583;28;19923;-82
2021/11/30 06:18:09;;;;;;;;;;;2.20;99.90;;;;;;5078086;28;19996;-81
2021/11/30 06:20:37;;;;;;;;;;;2.20;99.90;;;;;;5077391;28;19925;-81
2021/11/30 06:23:04;;;;;;;;;;;2.20;99.90;;;;;;5080924;28;19913;-80
2021/11/30 06:25:31;;;;;;;;;;;2.10;99.90;;;;;;5078291;28;19935;-82
2021/11/30 06:27:57;;;;;;;;;;;2.10;99.90;;;;;;5071998;28;19935;-82
2021/11/30 06:30:24;;;;;;;;;;;2.10;99.90;;;;;;5069043;28;20332;-80
2021/11/30 06:32:53;;;;;;;;;;;2.10;99.90;;;;;;5068643;28;19932;-81
2021/11/30 06:35:20;;;;;;;;;;;2.10;99.90;;;;;;5071053;28;19980;-82
2021/11/30 06:37:48;;;;;;;;;;;2.10;99.90;;;;;;5076464;22;20015;-78
2021/11/30 06:40:15;;;;;;;;;;;2.10;99.90;;;;;;5061898;28;19960;-80
2021/11/30 06:42:41;;;;;;;;;;;3.10;99.90;;;;;;5060996;28;19925;-81
2021/11/30 06:45:09;;;;;;;;;;;2.20;99.90;;;;;;5063674;28;20419;-80
2021/11/30 06:47:36;;;;;;;;;;;2.20;99.90;;;;;;5061992;28;19948;-80
2021/11/30 06:50:03;;;;;;;;;;;2.20;99.90;;;;;;5064121;28;19925;-79
2021/11/30 06:52:30;;;;;;;;;;;2.20;99.90;;;;;;5070376;28;19968;-78
2021/11/30 06:54:58;;;;;;;;;;;2.60;99.90;;;;;;5073261;28;19952;-78
2021/11/30 06:57:24;;;;;;;;;;;2.20;99.90;;;;;;5060272;28;19972;-80
2021/11/30 06:59:51;;;;;;;;;;;2.20;99.90;;;;;;5058145;28;19959;-80
2021/11/30 07:02:18;;;;;;;;;;;2.20;99.90;;;;;;5058624;28;19968;-80
2021/11/30 07:04:48;;;;;;;;;;;2.00;99.90;;;;;;5057978;28;19929;-79
2021/11/30 07:07:24;;;;;;;;;;;1.90;99.90;;;;;;5057613;28;19932;-79
2021/11/30 07:10:05;;;;;;;;;;;2.30;99.90;;;;;;5057657;28;19952;-78
2021/11/30 07:12:50;;;;;;;;;;;2.20;99.90;;;;;;5058167;28;19951;-79
2021/11/30 07:15:16;;;;;;;;;;;2.20;99.90;;;;;;5058954;28;19925;-79
2021/11/30 07:17:43;;;;;;;;;;;2.40;99.90;;;;;;5059313;28;19925;-79
2021/11/30 07:20:10;;;;;;;;;;;2.40;99.90;;;;;;5060503;28;19929;-79
2021/11/30 07:22:37;;;;;;;;;;;2.40;99.90;;;;;;5060405;28;19932;-79
2021/11/30 07:25:04;;;;;;;;;;;2.30;99.90;;;;;;5060677;28;20366;-79
2021/11/30 07:27:31;;;;;;;;;;;2.30;99.90;;;;;;5059026;28;19925;-79
2021/11/30 07:29:59;;;;;;;;;;;2.20;99.90;;;;;;5060604;28;19988;-80
2021/11/30 07:32:26;;;;;;;;;;;2.10;99.90;;;;;;5060290;28;19925;-79
2021/11/30 07:34:53;;;;;;;;;;;2.20;99.90;;;;;;5061438;28;19925;-79
2021/11/30 07:37:19;;;;;;;;;;;2.20;99.90;;;;;;5061771;28;19996;-79
2021/11/30 07:39:46;;;;;;;;;;;2.20;99.90;;;;;;5062074;28;20020;-79
2021/11/30 07:42:13;;;;;;;;;;;2.20;99.90;;;;;;5066231;28;19951;-79
2021/11/30 07:44:39;;;;;;;;;;;2.20;99.90;;;;;;5070748;28;19924;-78
2021/11/30 07:47:07;;;;;;;;;;;2.30;99.90;;;;;;5069505;28;19983;-79
2021/11/30 07:49:34;;;;;;;;;;;2.30;99.90;;;;;;5066764;28;20012;-79
2021/11/30 07:52:01;;;;;;;;;;;2.20;99.90;;;;;;5063765;28;20380;-79
2021/11/30 07:54:29;;;;;;;;;;;2.30;99.90;;;;;;5062725;28;19984;-79
2021/11/30 07:56:56;;;;;;;;;;;2.30;99.90;;;;;;5062774;28;20271;-80
2021/11/30 07:59:22;;;;;;;;;;;2.30;99.90;;;;;;5062194;28;19924;-80
2021/11/30 08:01:49;;;;;;;;;;;2.20;99.90;;;;;;5061487;28;19925;-81
2021/11/30 08:04:17;;;;;;;;;;;2.20;99.90;;;;;;5060708;28;19925;-80
2021/11/30 08:06:44;;;;;;;;;;;2.20;99.90;;;;;;5067475;28;20023;-79
2021/11/30 08:09:10;;;;;;;;;;;2.20;99.90;;;;;;5067911;28;19931;-78
2021/11/30 08:11:37;;;;;;;;;;;2.10;99.90;;;;;;5064158;28;20387;-80
2021/11/30 08:14:04;;;;;;;;;;;2.20;99.90;;;;;;5062355;28;19947;-79
2021/11/30 08:16:30;;;;;;;;;;;2.30;99.90;;;;;;5061085;28;20371;-80
2021/11/30 08:18:57;;;;;;;;;;;2.30;99.90;;;;;;5062512;28;19925;-81
2021/11/30 08:21:25;;;;;;;;;;;2.30;99.90;;;;;;5060748;28;19988;-81
2021/11/30 08:23:52;;;;;;;;;;;2.30;99.90;;;;;;5065582;28;19925;-78
2021/11/30 08:26:19;;;;;;;;;;;2.40;99.90;;;;;;5075688;28;19925;-79
2021/11/30 08:28:46;;;;;;;;;;;2.40;99.90;;;;;;5075009;28;19931;-81
2021/11/30 08:31:13;;;;;;;;;;;2.30;99.90;;;;;;5061904;28;19931;-81
2021/11/30 08:33:39;;;;;;;;;;;2.30;99.90;;;;;;5060554;28;20067;-80
2021/11/30 08:36:06;;;;;;;;;;;2.40;99.90;;;;;;5060954;28;19925;-81
2021/11/30 08:38:34;;;;;;;;;;;2.50;99.90;;;;;;5061527;28;20398;-81
2021/11/30 08:41:01;;;;;;;;;;;2.40;99.90;;;;;;5061159;28;20027;-81
2021/11/30 08:43:28;;;;;;;;;;;2.40;99.90;;;;;;5068568;28;20027;-79
2021/11/30 08:45:55;;;;;;;;;;;2.40;99.90;;;;;;5063131;28;19924;-80
2021/11/30 08:48:24;;;;;;;;;;;2.50;99.90;;;;;;5062462;28;19925;-81
2021/11/30 08:50:50;;;;;;;;;;;2.50;99.90;;;;;;5063345;28;19960;-81
2021/11/30 08:53:18;;;;;;;;;;;2.40;99.90;;;;;;5064034;28;19940;-81
2021/11/30 08:55:47;;;;;;;;;;;2.50;99.90;;;;;;5062086;28;19947;-81
2021/11/30 08:58:13;;;;;;;;;;;2.80;99.90;;;;;;5061979;28;20020;-80
2021/11/30 09:00:40;;;;;;;;;;;2.20;99.90;;;;;;5060609;28;19935;-80
2021/11/30 09:03:07;;;;;;;;;;;2.50;99.90;;;;;;5062724;28;20019;-79
2021/11/30 09:05:33;;;;;;;;;;;2.30;99.90;;;;;;5060764;28;19925;-80
2021/11/30 09:08:00;;;;;;;;;;;2.60;99.90;;;;;;5066119;28;19960;-79
2021/11/30 09:10:27;;;;;;;;;;;2.70;99.90;;;;;;5064922;28;19925;-81
2021/11/30 09:12:56;;;;;;;;;;;2.70;99.90;;;;;;5063414;28;19966;-79
2021/11/30 09:15:22;;;;;;;;;;;2.60;99.90;;;;;;5063042;28;19963;-80
2021/11/30 09:17:50;;;;;;;;;;;2.70;99.90;;;;;;5062880;28;19925;-80
2021/11/30 09:20:16;;;;;;;;;;;2.70;99.90;;;;;;5061373;28;19967;-80
2021/11/30 09:22:44;;;;;;;;;;;2.50;99.90;;;;;;5062318;28;20020;-80
2021/11/30 09:25:11;;;;;;;;;;;2.70;99.90;;;;;;5062078;28;20352;-80
2021/11/30 09:27:37;;;;;;;;;;;2.70;99.90;;;;;;5063103;28;19924;-80
2021/11/30 09:30:07;;;;;;;;;;;2.70;99.90;;;;;;5062617;28;19924;-79
2021/11/30 09:32:34;;;;;;;;;;;2.80;99.90;;;;;;5059047;28;19971;-82
2021/11/30 09:35:01;;;;;;;;;;;2.80;99.90;;;;;;5059614;28;19974;-80
2021/11/30 09:37:28;;;;;;;;;;;2.80;99.90;;;;;;5072053;28;19940;-80
2021/11/30 09:39:55;;;;;;;;;;;2.80;99.90;;;;;;5070432;28;19924;-80
2021/11/30 09:42:22;;;;;;;;;;;2.90;99.90;;;;;;5071664;28;19928;-78
2021/11/30 09:44:49;;;;;;;;;;;2.90;99.90;;;;;;5067968;28;19925;-79
2021/11/30 09:47:17;;;;;;;;;;;2.90;99.90;;;;;;5065328;28;19925;-79
2021/11/30 09:49:45;;;;;;;;;;;3.00;99.90;;;;;;5072484;28;19956;-79
2021/11/30 09:52:12;;;;;;;;;;;2.90;99.90;;;;;;5076610;28;19925;-79
2021/11/30 09:54:39;;;;;;;;;;;3.00;99.90;;;;;;5079638;28;19924;-81
2021/11/30 09:57:06;;;;;;;;;;;3.10;99.90;;;;;;5072090;28;19975;-80
2021/11/30 09:59:32;;;;;;;;;;;3.50;99.90;;;;;;5063890;28;19925;-81
2021/11/30 10:01:59;;;;;;;;;;;3.20;99.90;;;;;;5063903;28;19967;-80
2021/11/30 10:04:27;;;;;;;;;;;3.20;99.90;;;;;;5067098;28;19925;-80
2021/11/30 10:06:56;;;;;;;;;;;3.20;99.90;;;;;;5066917;28;20016;-80
2021/11/30 10:09:24;;;;;;;;;;;3.30;99.90;;;;;;5063830;28;19931;-81
2021/11/30 10:11:58;;;;;;;;;;;3.70;99.90;;;;;;5064328;28;19983;-79
2021/11/30 10:14:32;;;;;;;;;;;3.30;99.90;;;;;;5066462;28;19986;-80
2021/11/30 10:17:18;;;;;;;;;;;3.50;99.90;;;;;;5073465;28;19924;-78
2021/11/30 10:19:52;;;;;;;;;;;3.40;99.90;;;;;;5070966;28;19925;-79
2021/11/30 10:22:33;;;;;;;;;;;3.40;99.90;;;;;;5065317;28;19925;-80
2021/11/30 10:25:08;;;;;;;;;;;3.50;99.90;;;;;;5065871;28;19970;-80
2021/11/30 10:27:35;;;;;;;;;;;3.50;99.90;;;;;;5072784;28;19925;-80
2021/11/30 10:30:09;;;;;;;;;;;3.50;99.90;;;;;;5074088;28;19978;-81
2021/11/30 10:32:36;;;;;;;;;;;4.10;99.90;;;;;;5073012;28;19980;-81
2021/11/30 10:35:04;;;;;;;;;;;3.40;99.90;;;;;;5065682;28;19956;-81
2021/11/30 10:37:31;;;;;;;;;;;4.00;99.90;;;;;;5064217;28;19932;-81
2021/11/30 10:40:06;;;;;;;;;;;4.00;99.90;;;;;;5063116;28;20020;-81
2021/11/30 10:42:33;;;;;;;;;;;3.90;99.90;;;;;;5063784;28;19931;-81
2021/11/30 10:45:00;;;;;;;;;;;4.00;99.90;;;;;;5063973;28;19947;-81
2021/11/30 10:47:30;;;;;;;;;;;4.00;99.90;;;;;;5074846;28;19912;-81
2021/11/30 10:49:57;;;;;;;;;;;4.00;99.90;;;;;;5072615;28;19925;-79
2021/11/30 10:52:26;;;;;;;;;;;4.20;99.90;;;;;;5066256;28;19975;-80
2021/11/30 10:55:04;;;;;;;;;;;4.10;99.90;;;;;;5064636;28;19979;-80
2021/11/30 10:57:32;;;;;;;;;;;4.20;99.90;;;;;;5062469;28;19925;-81
2021/11/30 11:00:08;;;;;;;;;;;4.30;99.90;;;;;;5062650;28;19925;-81
2021/11/30 11:02:48;;;;;;;;;;;4.30;99.90;;;;;;5066996;28;20451;-80
2021/11/30 11:05:28;;;;;;;;;;;4.40;99.90;;;;;;5068654;28;20375;-80
2021/11/30 11:08:04;;;;;;;;;;;4.40;99.90;;;;;;5069091;28;19981;-80
2021/11/30 11:10:31;;;;;;;;;;;4.50;99.90;;;;;;5065747;28;20465;-79
2021/11/30 11:13:16;;;;;;;;;;;4.50;99.90;;;;;;5064290;28;19925;-81
2021/11/30 11:15:42;;;;;;;;;;;4.70;99.90;;;;;;5062332;28;19988;-82
2021/11/30 11:18:19;;;;;;;;;;;4.70;99.90;;;;;;5063057;28;19925;-81
2021/11/30 11:20:46;;;;;;;;;;;4.70;99.90;;;;;;5065586;28;19932;-81
2021/11/30 11:23:20;;;;;;;;;;;4.80;99.90;;;;;;5063612;28;19964;-81
2021/11/30 11:25:47;;;;;;;;;;;4.80;99.90;;;;;;5064720;28;19925;-80
2021/11/30 11:28:14;;;;;;;;;;;5.00;99.90;;;;;;5063439;28;20415;-80
2021/11/30 11:30:41;;;;;;;;;;;4.80;99.90;;;;;;5062952;28;20363;-80
2021/11/30 11:33:08;;;;;;;;;;;4.80;99.90;;;;;;5062258;28;19924;-80
2021/11/30 11:35:34;;;;;;;;;;;4.80;99.90;;;;;;5062544;28;19967;-80
2021/11/30 11:38:01;;;;;;;;;;;4.90;99.90;;;;;;5063523;28;19963;-81
2021/11/30 11:40:29;;;;;;;;;;;4.90;99.90;;;;;;5063507;28;19967;-81
2021/11/30 11:42:56;;;;;;;;;;;4.80;99.90;;;;;;5062819;28;20020;-81
2021/11/30 11:45:23;;;;;;;;;;;4.90;99.90;;;;;;5063816;28;19925;-81
2021/11/30 11:47:50;;;;;;;;;;;4.90;99.90;;;;;;5064621;28;19952;-81
2021/11/30 11:50:17;;;;;;;;;;;4.90;99.90;;;;;;5066170;28;20363;-80
2021/11/30 11:52:44;;;;;;;;;;;4.90;99.90;;;;;;5066667;28;19925;-80
2021/11/30 11:55:13;;;;;;;;;;;5.00;99.90;;;;;;5066470;28;19971;-81
2021/11/30 11:57:55;;;;;;;;;;;4.90;99.90;;;;;;5062423;28;19924;-81
2021/11/30 12:00:22;;;;;;;;;;;4.50;99.90;;;;;;5062387;28;19925;-81
2021/11/30 12:02:51;;;;;;;;;;;4.90;99.90;;;;;;5068920;28;19931;-81
2021/11/30 12:05:17;;;;;;;;;;;5.00;99.90;;;;;;5070726;28;20028;-81
2021/11/30 12:07:57;;;;;;;;;;;4.90;99.90;;;;;;5066401;28;19972;-81
2021/11/30 12:10:25;;;;;;;;;;;4.90;99.90;;;;;;5062970;28;19925;-81
2021/11/30 12:13:18;;;;;;;;;;;4.80;99.90;;;;;;5061928;28;20027;-81
2021/11/30 12:15:56;;;;;;;;;;;4.70;99.90;;;;;;5062826;28;20299;-82
2021/11/30 12:18:26;;;;;;;;;;;4.70;99.90;;;;;;5063623;28;19996;-80
2021/11/30 12:20:53;;;;;;;;;;;4.70;99.90;;;;;;5061429;28;19931;-81
2021/11/30 12:23:32;;;;;;;;;;;4.70;99.90;;;;;;5062002;28;19970;-81
2021/11/30 12:25:58;;;;;;;;;;;4.60;99.90;;;;;;5061902;28;19924;-81
2021/11/30 12:28:39;;;;;;;;;;;4.60;99.90;;;;;;5061343;28;19928;-80
2021/11/30 12:31:07;;;;;;;;;;;4.60;99.90;;;;;;5062267;28;19929;-81
2021/11/30 12:33:35;;;;;;;;;;;4.40;99.90;;;;;;5062279;28;20410;-80
2021/11/30 12:36:02;;;;;;;;;;;4.60;99.90;;;;;;5064587;28;19931;-81
2021/11/30 12:38:32;;;;;;;;;;;4.50;99.90;;;;;;5070638;28;19925;-79
2021/11/30 12:41:00;;;;;;;;;;;4.70;99.90;;;;;;5071402;28;19951;-81
2021/11/30 12:43:28;;;;;;;;;;;4.80;99.90;;;;;;5063610;28;19960;-81
2021/11/30 12:46:01;;;;;;;;;;;4.90;99.90;;;;;;5063938;28;19947;-80
2021/11/30 12:48:35;;;;;;;;;;;4.90;99.90;;;;;;5067404;28;19948;-80
2021/11/30 12:51:23;;;;;;;;;;;5.00;99.90;;;;;;5068406;28;19929;-80
2021/11/30 12:53:50;;;;;;;;;;;5.10;99.90;;;;;;5068366;28;20060;-79
2021/11/30 12:56:32;;;;;;;;;;;5.20;99.90;;;;;;5066694;28;19967;-78
2021/11/30 12:58:59;;;;;;;;;;;5.20;99.90;;;;;;5066072;28;20004;-79
2021/11/30 13:01:34;;;;;;;;;;;5.40;99.90;;;;;;5061236;28;19956;-80
2021/11/30 13:04:22;;;;;;;;;;;5.40;99.90;;;;;;5061460;28;19987;-81
2021/11/30 13:07:05;;;;;;;;;;;5.50;99.90;;;;;;5059773;28;19932;-82
2021/11/30 13:09:35;;;;;;;;;;;5.50;99.90;;;;;;5062049;28;19925;-81
2021/11/30 13:12:02;;;;;;;;;;;5.60;99.90;;;;;;5061449;28;19977;-81
2021/11/30 13:14:29;;;;;;;;;;;5.60;99.90;;;;;;5061234;28;19974;-82
2021/11/30 13:16:57;;;;;;;;;;;5.70;99.90;;;;;;5064500;28;20007;-80
2021/11/30 13:19:31;;;;;;;;;;;5.60;99.90;;;;;;5059704;28;20031;-81
2021/11/30 13:21:58;;;;;;;;;;;5.70;99.90;;;;;;5060872;28;19925;-79
2021/11/30 13:24:32;;;;;;;;;;;6.20;99.90;;;;;;5064514;28;19988;-81
2021/11/30 13:27:08;;;;;;;;;;;5.70;99.90;;;;;;5066796;28;19925;-81
2021/11/30 13:29:35;;;;;;;;;;;6.00;99.90;;;;;;5066833;28;19975;-82
2021/11/30 13:32:04;;;;;;;;;;;5.70;99.90;;;;;;5066808;28;19971;-82
2021/11/30 13:34:31;;;;;;;;;;;5.70;99.90;;;;;;5065592;28;19955;-82
2021/11/30 13:36:58;;;;;;;;;;;5.80;99.90;;;;;;5064538;28;19924;-81
2021/11/30 13:39:24;;;;;;;;;;;5.70;99.90;;;;;;5064865;28;19987;-81
2021/11/30 13:41:51;;;;;;;;;;;5.80;99.90;;;;;;5067740;28;19954;-81
2021/11/30 13:44:18;;;;;;;;;;;5.70;99.90;;;;;;5064933;28;20065;-81
2021/11/30 13:46:45;;;;;;;;;;;5.70;99.90;;;;;;5064571;28;19999;-81
2021/11/30 13:49:14;;;;;;;;;;;5.70;99.90;;;;;;5064831;28;19924;-81
2021/11/30 13:51:41;;;;;;;;;;;5.80;99.90;;;;;;5064150;28;19971;-81
2021/11/30 13:54:11;;;;;;;;;;;5.80;99.90;;;;;;5065517;28;19997;-80
2021/11/30 13:56:40;;;;;;;;;;;5.80;99.90;;;;;;5070224;28;20061;-79
2021/11/30 13:59:15;;;;;;;;;;;5.80;99.90;;;;;;5067818;28;19935;-80
2021/11/30 14:01:49;;;;;;;;;;;5.70;99.90;;;;;;5060754;28;19932;-80
2021/11/30 14:04:19;;;;;;;;;;;5.80;99.90;;;;;;5064383;28;20311;-81
2021/11/30 14:06:47;;;;;;;;;;;5.80;99.90;;;;;;5059264;28;19948;-81
2021/11/30 14:09:14;;;;;;;;;;;5.70;99.90;;;;;;5064789;28;19925;-79
2021/11/30 14:11:45;;;;;;;;;;;5.80;99.90;;;;;;5079159;28;19925;-79
2021/11/30 14:14:12;;;;;;;;;;;5.90;99.90;;;;;;5078363;28;19988;-79
2021/11/30 14:16:46;;;;;;;;;;;5.90;99.90;;;;;;5071749;28;19932;-81
2021/11/30 14:19:14;;;;;;;;;;;6.00;99.90;;;;;;5064226;28;19980;-81
2021/11/30 14:21:42;;;;;;;;;;;6.10;99.90;;;;;;5062035;28;19925;-78
2021/11/30 14:24:10;;;;;;;;;;;6.20;99.90;;;;;;5062199;28;19978;-79
2021/11/30 14:26:39;;;;;;;;;;;5.90;99.90;;;;;;5075019;28;19968;-79
2021/11/30 14:29:09;;;;;;;;;;;6.00;99.90;;;;;;5077977;28;19948;-79
2021/11/30 14:31:55;;;;;;;;;;;6.00;99.90;;;;;;5077676;28;19925;-79
2021/11/30 14:34:22;;;;;;;;;;;6.00;99.90;;;;;;5076015;28;19925;-79
2021/11/30 14:36:50;;;;;;;;;;;6.00;99.90;;;;;;5072765;28;19924;-79
2021/11/30 14:39:24;;;;;;;;;;;6.00;99.90;;;;;;5072629;28;19993;-78
2021/11/30 14:41:51;;;;;;;;;;;6.00;99.90;;;;;;5070569;28;19925;-81
2021/11/30 14:44:25;;;;;;;;;;;6.00;99.90;;;;;;5066318;28;19931;-80